Time;durP1;ratioP1;P1;durP2;ratioP2;P2;SDS_P1;SDS_P2;PMS_P1;PMS_P2;Temp;Humidity;BMP_temperature;BMP_pressure;BME280_temperature;BME280_humidity;BME280_pressure;Samples;Min_cycle;Max_cycle;Signal;HPM_P1;HPM_P2
2023/07/27 00:00:08;;;;;;;5.30;3.80;;;13.40;99.90;;;;;;4978505;28;20050;-80
2023/07/27 00:02:35;;;;;;;6.90;3.60;;;13.30;99.90;;;;;;4986262;28;20552;-81
2023/07/27 00:05:01;;;;;;;5.05;4.07;;;13.30;99.90;;;;;;4968381;28;20054;-80
2023/07/27 00:07:27;;;;;;;5.00;3.75;;;13.30;99.90;;;;;;4982668;28;20082;-80
2023/07/27 00:09:52;;;;;;;5.13;3.63;;;14.40;99.90;;;;;;4983197;28;20074;-81
2023/07/27 00:12:18;;;;;;;4.80;4.10;;;13.30;99.90;;;;;;4985961;28;20053;-81
2023/07/27 00:14:44;;;;;;;6.00;3.42;;;13.30;99.90;;;;;;4985664;28;20050;-81
2023/07/27 00:17:09;;;;;;;5.30;3.97;;;13.30;99.90;;;;;;4984532;28;20113;-81
2023/07/27 00:19:35;;;;;;;7.25;4.15;;;13.30;99.90;;;;;;4983001;28;20027;-78
2023/07/27 00:22:01;;;;;;;5.07;3.60;;;13.60;99.90;;;;;;4983328;28;20053;-81
2023/07/27 00:24:26;;;;;;;7.53;4.10;;;13.30;99.90;;;;;;4968509;28;20113;-81
2023/07/27 00:26:52;;;;;;;8.82;4.28;;;13.30;99.90;;;;;;4968792;28;20486;-81
2023/07/27 00:29:19;;;;;;;7.72;4.55;;;14.10;99.90;;;;;;4982447;28;20054;-81
2023/07/27 00:31:45;;;;;;;5.18;4.10;;;13.30;99.90;;;;;;4982965;28;20039;-81
2023/07/27 00:34:10;;;;;;;6.38;4.35;;;13.30;99.90;;;;;;4985033;28;20061;-80
2023/07/27 00:36:37;;;;;;;7.85;4.30;;;13.30;99.90;;;;;;4985503;28;20563;-81
2023/07/27 00:39:03;;;;;;;5.93;4.50;;;13.30;99.90;;;;;;4985549;28;20045;-81
2023/07/27 00:41:28;;;;;;;7.95;4.00;;;13.30;99.90;;;;;;4999644;28;20042;-81
2023/07/27 00:43:54;;;;;;;8.57;4.97;;;13.30;99.90;;;;;;4990920;28;20057;-81
2023/07/27 00:46:20;;;;;;;8.15;4.75;;;13.30;99.90;;;;;;4986387;28;20038;-81
2023/07/27 00:48:46;;;;;;;6.47;4.18;;;13.30;99.90;;;;;;4985615;28;20034;-78
2023/07/27 00:51:11;;;;;;;9.23;4.82;;;13.30;99.90;;;;;;4983212;28;20049;-78
2023/07/27 00:53:37;;;;;;;4.38;3.92;;;14.30;99.90;;;;;;4979610;28;20498;-78
2023/07/27 00:56:41;;;;;;;6.22;4.43;;;13.30;99.90;;;;;;4984132;28;20049;-80
2023/07/27 00:59:16;;;;;;;4.88;4.30;;;13.30;99.90;;;;;;4987617;28;20059;-79
2023/07/27 01:01:42;;;;;;;8.23;4.75;;;14.60;99.90;;;;;;4985362;28;20076;-79
2023/07/27 01:04:08;;;;;;;7.97;4.40;;;13.30;99.90;;;;;;4976750;28;20047;-79
2023/07/27 01:06:34;;;;;;;6.65;4.50;;;14.40;99.90;;;;;;4985456;28;20053;-79
2023/07/27 01:09:00;;;;;;;6.20;3.88;;;13.30;99.90;;;;;;4985202;28;20042;-79
2023/07/27 01:11:35;;;;;;;6.05;4.50;;;13.30;99.90;;;;;;4985060;28;20046;-79
2023/07/27 01:14:10;;;;;;;5.07;3.72;;;13.30;99.90;;;;;;4984881;28;20069;-80
2023/07/27 01:16:51;;;;;;;4.32;3.88;;;13.30;99.90;;;;;;4982023;28;20046;-79
2023/07/27 01:19:41;;;;;;;4.78;3.70;;;13.30;99.90;;;;;;4983687;28;20045;-79
2023/07/27 01:22:33;;;;;;;5.78;4.28;;;13.30;99.90;;;;;;4984071;28;20081;-79
2023/07/27 01:25:37;;;;;;;5.07;3.80;;;13.30;99.90;;;;;;4948091;28;20121;-79
2023/07/27 01:28:24;;;;;;;4.93;3.85;;;13.30;99.90;;;;;;4956706;28;20065;-79
2023/07/27 01:30:55;;;;;;;5.75;4.10;;;13.30;99.90;;;;;;4969440;28;20042;-79
2023/07/27 01:33:30;;;;;;;7.47;3.33;;;13.30;99.90;;;;;;4983682;28;20054;-80
2023/07/27 01:36:10;;;;;;;6.22;4.05;;;13.30;99.90;;;;;;4984745;28;20173;-80
2023/07/27 01:38:40;;;;;;;4.47;3.50;;;14.60;99.90;;;;;;4974218;28;20053;-79
2023/07/27 01:41:08;;;;;;;5.25;3.38;;;13.30;99.90;;;;;;4985277;28;20111;-79
2023/07/27 01:43:35;;;;;;;6.45;4.07;;;13.80;99.90;;;;;;4994673;28;20053;-80
2023/07/27 01:46:02;;;;;;;3.90;3.35;;;13.30;99.90;;;;;;4989060;28;20057;-80
2023/07/27 01:48:29;;;;;;;5.78;3.30;;;13.30;99.90;;;;;;4981822;28;20049;-80
2023/07/27 01:50:55;;;;;;;7.03;3.38;;;13.30;99.90;;;;;;4964047;28;20039;-79
2023/07/27 01:53:24;;;;;;;5.55;3.25;;;13.40;99.90;;;;;;4982606;28;20130;-79
2023/07/27 01:55:51;;;;;;;5.40;3.65;;;14.20;99.90;;;;;;4983821;28;20042;-80
2023/07/27 01:58:18;;;;;;;3.53;3.22;;;13.30;99.90;;;;;;4990679;28;20039;-80
2023/07/27 02:00:44;;;;;;;4.85;3.70;;;14.70;99.90;;;;;;4968578;28;20258;-80
2023/07/27 02:03:11;;;;;;;5.32;3.65;;;13.30;99.90;;;;;;4983473;28;20550;-79
2023/07/27 02:05:36;;;;;;;6.45;3.83;;;13.30;99.90;;;;;;4963836;28;20046;-79
2023/07/27 02:08:02;;;;;;;4.45;3.65;;;13.30;99.90;;;;;;4963080;28;20059;-79
2023/07/27 02:10:29;;;;;;;4.38;3.00;;;13.30;99.90;;;;;;4984104;28;20049;-79
2023/07/27 02:13:04;;;;;;;5.53;4.15;;;13.30;99.90;;;;;;5000608;28;20038;-79
2023/07/27 02:15:35;;;;;;;6.95;3.50;;;13.30;99.90;;;;;;4992820;28;20038;-80
2023/07/27 02:18:14;;;;;;;4.43;3.38;;;13.30;99.90;;;;;;4984928;28;20372;-79
2023/07/27 02:20:40;;;;;;;6.45;3.67;;;13.30;99.90;;;;;;4973456;28;20050;-80
2023/07/27 02:23:07;;;;;;;6.40;3.95;;;13.30;99.90;;;;;;4980710;28;20512;-79
2023/07/27 02:25:34;;;;;;;4.68;3.70;;;13.30;99.90;;;;;;4973163;28;20039;-80
2023/07/27 02:27:59;;;;;;;6.90;3.80;;;13.30;99.90;;;;;;4962884;28;20523;-79
2023/07/27 02:30:25;;;;;;;7.13;4.60;;;13.30;99.90;;;;;;4965967;28;20058;-80
2023/07/27 02:32:50;;;;;;;4.88;3.60;;;14.60;99.90;;;;;;4983648;28;20035;-80
2023/07/27 02:35:16;;;;;;;5.07;3.45;;;13.90;99.90;;;;;;4983012;28;20113;-80
2023/07/27 02:37:42;;;;;;;5.35;4.57;;;13.30;99.90;;;;;;4980858;28;20110;-80
2023/07/27 02:40:08;;;;;;;6.85;4.05;;;13.30;99.90;;;;;;4980647;28;20121;-80
2023/07/27 02:42:34;;;;;;;6.93;3.70;;;13.30;99.90;;;;;;4971720;28;20034;-80
2023/07/27 02:44:59;;;;;;;4.25;3.42;;;13.30;99.90;;;;;;4980684;28;20114;-80
2023/07/27 02:47:25;;;;;;;8.00;4.32;;;13.40;99.90;;;;;;4982645;28;20081;-80
2023/07/27 02:49:50;;;;;;;5.72;4.40;;;13.40;99.90;;;;;;4977747;28;20133;-80
2023/07/27 02:52:16;;;;;;;4.25;3.85;;;13.40;99.90;;;;;;4963815;28;20051;-80
2023/07/27 02:54:42;;;;;;;6.00;4.65;;;13.40;99.90;;;;;;4983840;28;20043;-79
2023/07/27 02:57:07;;;;;;;7.22;4.30;;;13.40;99.90;;;;;;4983331;28;20050;-80
2023/07/27 02:59:33;;;;;;;4.38;3.72;;;13.40;99.90;;;;;;4947370;28;20043;-79
2023/07/27 03:01:59;;;;;;;4.63;4.20;;;13.40;99.90;;;;;;4980127;28;20066;-80
2023/07/27 03:04:24;;;;;;;6.68;4.03;;;14.80;99.90;;;;;;4981671;28;20097;-80
2023/07/27 03:06:50;;;;;;;5.75;4.40;;;13.70;99.90;;;;;;4968423;28;20054;-80
2023/07/27 03:09:15;;;;;;;7.72;4.78;;;13.50;99.90;;;;;;4969909;28;20046;-80
2023/07/27 03:11:41;;;;;;;7.38;4.35;;;13.70;99.90;;;;;;4983753;28;20476;-80
2023/07/27 03:14:07;;;;;;;7.35;4.25;;;13.50;99.90;;;;;;4983871;28;20038;-80
2023/07/27 03:16:32;;;;;;;6.63;4.47;;;13.90;99.90;;;;;;4987000;28;20046;-80
2023/07/27 03:18:58;;;;;;;5.88;4.55;;;13.90;99.90;;;;;;4953592;28;20121;-80
2023/07/27 03:21:24;;;;;;;8.98;4.35;;;13.50;99.90;;;;;;4988412;28;20061;-80
2023/07/27 03:23:49;;;;;;;7.45;4.95;;;13.60;99.90;;;;;;4986607;28;20077;-80
2023/07/27 03:26:16;;;;;;;5.78;4.95;;;13.60;99.90;;;;;;4987579;28;20129;-80
2023/07/27 03:28:42;;;;;;;6.50;4.85;;;13.60;99.90;;;;;;4984451;28;20043;-80
2023/07/27 03:31:23;;;;;;;6.05;5.00;;;13.60;99.90;;;;;;5003734;28;20112;-80
2023/07/27 03:33:49;;;;;;;7.10;4.88;;;13.60;99.90;;;;;;4982801;28;20105;-79
2023/07/27 03:36:16;;;;;;;6.68;4.53;;;14.60;99.90;;;;;;4984279;28;20050;-80
2023/07/27 03:38:42;;;;;;;5.28;4.75;;;13.50;99.90;;;;;;4986755;28;20474;-80
2023/07/27 03:41:08;;;;;;;7.13;5.30;;;13.60;99.90;;;;;;4986874;28;20486;-80
2023/07/27 03:43:33;;;;;;;8.38;4.43;;;13.60;99.90;;;;;;4984014;28;20046;-80
2023/07/27 03:45:59;;;;;;;6.88;5.10;;;13.50;99.90;;;;;;4982756;28;20030;-80
2023/07/27 03:48:25;;;;;;;6.43;5.00;;;13.80;99.90;;;;;;4984754;28;20498;-80
2023/07/27 03:50:52;;;;;;;10.50;5.40;;;13.60;99.90;;;;;;4969213;28;20491;-80
2023/07/27 03:53:18;;;;;;;5.47;4.75;;;13.60;99.90;;;;;;4985448;28;20034;-80
2023/07/27 03:55:44;;;;;;;7.72;5.13;;;13.60;99.90;;;;;;4983604;28;20406;-80
2023/07/27 03:58:10;;;;;;;6.45;4.97;;;13.60;99.90;;;;;;4983239;28;20054;-80
2023/07/27 04:00:36;;;;;;;6.63;5.13;;;14.60;99.90;;;;;;4985091;28;20051;-80
2023/07/27 04:03:01;;;;;;;8.30;5.88;;;13.60;99.90;;;;;;4968908;28;20058;-80
2023/07/27 04:05:27;;;;;;;7.97;5.78;;;13.60;99.90;;;;;;4985096;28;20093;-80
2023/07/27 04:07:52;;;;;;;9.73;5.53;;;13.60;99.90;;;;;;4987758;28;20038;-80
2023/07/27 04:10:18;;;;;;;9.25;5.65;;;13.50;99.90;;;;;;4987334;28;20049;-80
2023/07/27 04:12:44;;;;;;;7.57;5.80;;;13.60;99.90;;;;;;4966076;28;20493;-80
2023/07/27 04:15:10;;;;;;;7.68;5.65;;;13.50;99.90;;;;;;4982631;28;20053;-80
2023/07/27 04:17:36;;;;;;;6.18;5.18;;;13.50;99.90;;;;;;4984465;28;20034;-80
2023/07/27 04:20:02;;;;;;;11.25;6.75;;;14.60;99.90;;;;;;4985582;28;20050;-80
2023/07/27 04:22:27;;;;;;;8.45;6.60;;;13.50;99.90;;;;;;4984608;28;20093;-80
2023/07/27 04:24:53;;;;;;;9.43;6.88;;;13.50;99.90;;;;;;4965451;28;20039;-80
2023/07/27 04:27:19;;;;;;;9.60;6.82;;;14.10;99.90;;;;;;4982377;28;20050;-80
2023/07/27 04:29:44;;;;;;;11.70;7.03;;;14.60;99.90;;;;;;4986000;28;20034;-80
2023/07/27 04:32:10;;;;;;;11.02;6.95;;;13.50;99.90;;;;;;4985879;28;20122;-80
2023/07/27 04:34:35;;;;;;;10.95;7.10;;;13.50;99.90;;;;;;4983822;28;20073;-80
2023/07/27 04:37:03;;;;;;;9.05;6.15;;;13.50;99.90;;;;;;4985806;28;20069;-80
2023/07/27 04:39:28;;;;;;;8.00;7.18;;;13.50;99.90;;;;;;4985004;28;20035;-80
2023/07/27 04:41:54;;;;;;;12.43;7.43;;;13.50;99.90;;;;;;4981727;28;20130;-80
2023/07/27 04:44:20;;;;;;;10.23;8.00;;;13.50;99.90;;;;;;4965165;28;20054;-80
2023/07/27 04:46:45;;;;;;;12.45;7.38;;;14.90;99.90;;;;;;4985701;28;20328;-80
2023/07/27 04:49:11;;;;;;;10.27;8.10;;;14.80;99.90;;;;;;4985038;28;20050;-80
2023/07/27 04:51:37;;;;;;;9.45;7.70;;;13.50;99.90;;;;;;4983692;28;20042;-80
2023/07/27 04:54:03;;;;;;;9.73;7.70;;;14.10;99.90;;;;;;4982323;28;20081;-80
2023/07/27 04:56:28;;;;;;;8.73;7.75;;;13.50;99.90;;;;;;4982632;28;20503;-79
2023/07/27 04:58:57;;;;;;;9.38;7.63;;;14.00;99.90;;;;;;4968270;28;20184;-80
2023/07/27 05:01:23;;;;;;;11.30;7.28;;;13.50;99.90;;;;;;4985531;28;20063;-80
2023/07/27 05:03:48;;;;;;;12.13;8.25;;;13.50;99.90;;;;;;4963958;28;20069;-79
2023/07/27 05:06:14;;;;;;;9.02;7.55;;;13.60;99.90;;;;;;4982135;28;20052;-80
2023/07/27 05:08:39;;;;;;;9.85;8.02;;;13.50;99.90;;;;;;4966469;28;20057;-80
2023/07/27 05:11:06;;;;;;;10.48;7.63;;;13.50;99.90;;;;;;4985333;28;20082;-79
2023/07/27 05:13:32;;;;;;;8.38;7.32;;;13.60;99.90;;;;;;4985683;28;20034;-78
2023/07/27 05:15:58;;;;;;;9.88;7.18;;;13.60;99.90;;;;;;4987039;28;20050;-80
2023/07/27 05:18:24;;;;;;;11.38;7.65;;;14.60;99.90;;;;;;4990130;28;20069;-80
2023/07/27 05:20:50;;;;;;;11.82;7.55;;;13.50;99.90;;;;;;4989536;28;20617;-79
2023/07/27 05:23:15;;;;;;;10.75;8.05;;;14.00;99.90;;;;;;4982620;28;20337;-79
2023/07/27 05:25:41;;;;;;;10.02;7.43;;;13.60;99.90;;;;;;4984023;28;20100;-79
2023/07/27 05:28:07;;;;;;;11.65;7.32;;;13.60;99.90;;;;;;4967933;28;20517;-80
2023/07/27 05:30:32;;;;;;;12.30;7.97;;;13.60;99.90;;;;;;4983571;28;20589;-79
2023/07/27 05:32:58;;;;;;;9.13;7.07;;;13.60;99.90;;;;;;4981340;28;20096;-80
2023/07/27 05:35:24;;;;;;;9.20;6.95;;;13.60;99.90;;;;;;4981623;28;20458;-79
2023/07/27 05:37:50;;;;;;;10.35;7.25;;;13.70;99.90;;;;;;4983565;28;20046;-80
2023/07/27 05:40:15;;;;;;;8.75;6.85;;;13.70;99.90;;;;;;4984660;28;20482;-80
2023/07/27 05:42:42;;;;;;;8.45;6.95;;;13.70;99.90;;;;;;4982720;28;20043;-80
2023/07/27 05:45:11;;;;;;;9.30;6.68;;;14.90;99.90;;;;;;4980646;28;20046;-80
2023/07/27 05:47:36;;;;;;;6.80;6.10;;;13.70;99.90;;;;;;4964673;28;20379;-80
2023/07/27 05:50:02;;;;;;;6.22;5.60;;;13.80;99.90;;;;;;4984771;28;20038;-80
2023/07/27 05:52:28;;;;;;;8.75;6.18;;;13.80;99.90;;;;;;4983396;28;20541;-79
2023/07/27 05:54:54;;;;;;;8.63;5.70;;;13.80;99.90;;;;;;4981470;28;20130;-80
2023/07/27 05:57:19;;;;;;;6.55;5.72;;;13.80;99.90;;;;;;4981285;28;20459;-80
2023/07/27 05:59:45;;;;;;;8.70;5.60;;;13.80;99.90;;;;;;4964760;28;20479;-80
2023/07/27 06:02:11;;;;;;;6.60;5.68;;;14.70;99.90;;;;;;4966295;28;20089;-80
2023/07/27 06:04:36;;;;;;;7.72;5.65;;;13.80;99.90;;;;;;4966368;28;20045;-80
2023/07/27 06:07:05;;;;;;;8.13;6.63;;;13.90;99.90;;;;;;4980391;28;20054;-79
2023/07/27 06:09:30;;;;;;;7.28;5.85;;;13.80;99.90;;;;;;4964133;28;20047;-80
2023/07/27 06:11:56;;;;;;;8.73;6.80;;;14.20;99.90;;;;;;4986044;28;20074;-81
2023/07/27 06:14:22;;;;;;;6.55;5.15;;;13.90;99.90;;;;;;4985187;28;20129;-81
2023/07/27 06:16:47;;;;;;;6.50;5.50;;;15.10;99.90;;;;;;4982804;28;20034;-80
2023/07/27 06:19:13;;;;;;;10.07;5.60;;;14.00;99.90;;;;;;4982319;28;20085;-79
2023/07/27 06:21:38;;;;;;;7.90;6.07;;;14.00;99.90;;;;;;4981155;28;20058;-78
2023/07/27 06:24:04;;;;;;;5.88;5.28;;;14.90;99.90;;;;;;4983890;28;20053;-79
2023/07/27 06:26:30;;;;;;;6.43;4.97;;;14.00;99.90;;;;;;4984255;28;20038;-79
2023/07/27 06:28:57;;;;;;;7.15;5.80;;;14.40;99.90;;;;;;4982882;28;20046;-79
2023/07/27 06:31:22;;;;;;;7.35;5.82;;;14.10;99.90;;;;;;4980801;28;20047;-79
2023/07/27 06:33:48;;;;;;;7.95;5.88;;;14.20;99.90;;;;;;4964673;28;20053;-79
2023/07/27 06:36:14;;;;;;;6.53;5.43;;;14.20;99.90;;;;;;4983763;28;20050;-79
2023/07/27 06:38:40;;;;;;;6.93;6.03;;;14.20;99.90;;;;;;4965928;28;20110;-79
2023/07/27 06:41:06;;;;;;;8.55;6.28;;;14.20;99.90;;;;;;4983435;28;20046;-80
2023/07/27 06:43:32;;;;;;;7.85;5.43;;;14.20;99.90;;;;;;4987652;28;20047;-79
2023/07/27 06:45:57;;;;;;;7.60;5.18;;;14.60;99.90;;;;;;4990411;28;20485;-80
2023/07/27 06:48:23;;;;;;;8.18;5.65;;;14.30;99.90;;;;;;4972777;28;20081;-80
2023/07/27 06:50:49;;;;;;;6.25;5.15;;;14.30;99.90;;;;;;4990188;28;20050;-79
2023/07/27 06:53:14;;;;;;;6.57;5.60;;;14.40;99.90;;;;;;4954746;28;20050;-79
2023/07/27 06:55:40;;;;;;;5.43;4.93;;;14.40;99.90;;;;;;4995744;28;20042;-79
2023/07/27 06:58:06;;;;;;;6.10;4.93;;;15.60;99.90;;;;;;4983738;28;20034;-79
2023/07/27 07:00:31;;;;;;;7.85;5.03;;;14.40;99.90;;;;;;4991686;28;20043;-79
2023/07/27 07:02:58;;;;;;;7.25;4.53;;;14.40;99.90;;;;;;4988996;28;20101;-80
2023/07/27 07:05:24;;;;;;;5.78;4.43;;;14.40;99.90;;;;;;4992913;28;20069;-80
2023/07/27 07:07:50;;;;;;;4.63;3.97;;;14.80;99.90;;;;;;4999413;28;20049;-80
2023/07/27 07:10:16;;;;;;;4.22;3.78;;;14.50;99.90;;;;;;4992209;28;20114;-80
2023/07/27 07:12:41;;;;;;;7.07;4.18;;;14.50;99.90;;;;;;4970987;28;20094;-80
2023/07/27 07:15:08;;;;;;;5.88;5.18;;;14.50;99.90;;;;;;4972978;28;20038;-82
2023/07/27 07:17:33;;;;;;;6.68;4.32;;;14.50;99.90;;;;;;4989935;28;20045;-82
2023/07/27 07:20:00;;;;;;;5.55;4.50;;;14.50;99.90;;;;;;4988977;28;20042;-81
2023/07/27 07:22:25;;;;;;;5.63;4.20;;;14.50;99.90;;;;;;4969241;28;20391;-81
2023/07/27 07:24:51;;;;;;;5.90;4.43;;;15.20;99.90;;;;;;4989205;28;20038;-80
2023/07/27 07:27:16;;;;;;;6.15;4.07;;;15.00;99.90;;;;;;4986527;28;20043;-80
2023/07/27 07:29:42;;;;;;;4.70;4.30;;;14.60;99.90;;;;;;4987939;28;20482;-79
2023/07/27 07:32:08;;;;;;;4.35;3.85;;;14.60;99.90;;;;;;4973546;28;20383;-78
2023/07/27 07:34:33;;;;;;;4.32;3.88;;;14.60;99.90;;;;;;4973134;28;20042;-79
2023/07/27 07:37:03;;;;;;;5.43;4.38;;;14.70;99.90;;;;;;4987400;28;20560;-80
2023/07/27 07:39:28;;;;;;;4.40;3.90;;;14.70;99.90;;;;;;4987601;28;20546;-79
2023/07/27 07:41:54;;;;;;;15.82;13.25;;;14.70;99.90;;;;;;4988366;28;20038;-79
2023/07/27 07:44:19;;;;;;;5.30;4.50;;;14.80;99.90;;;;;;4990280;28;20034;-81
2023/07/27 07:46:45;;;;;;;7.22;4.47;;;15.00;99.90;;;;;;4990185;28;20544;-81
2023/07/27 07:49:11;;;;;;;4.53;4.13;;;14.80;99.90;;;;;;4987613;28;20047;-80
2023/07/27 07:51:36;;;;;;;4.22;3.83;;;14.90;99.90;;;;;;4986365;28;20039;-80
2023/07/27 07:54:02;;;;;;;3.75;3.35;;;14.90;99.90;;;;;;4967759;28;20501;-79
2023/07/27 07:56:29;;;;;;;4.25;3.85;;;15.00;99.90;;;;;;4988050;28;20126;-81
2023/07/27 07:58:55;;;;;;;4.60;3.45;;;15.00;99.90;;;;;;4985510;28;20356;-80
2023/07/27 08:01:21;;;;;;;3.80;3.50;;;15.10;99.90;;;;;;4983794;28;20047;-80
2023/07/27 08:03:47;;;;;;;3.72;3.42;;;15.60;99.90;;;;;;4984060;28;20051;-80
2023/07/27 08:06:12;;;;;;;3.50;3.20;;;15.20;99.90;;;;;;4983756;28;20051;-80
2023/07/27 08:08:38;;;;;;;2.80;2.60;;;15.30;99.90;;;;;;4992306;28;20117;-80
2023/07/27 08:11:04;;;;;;;3.22;3.00;;;15.80;99.90;;;;;;4967466;28;20222;-80
2023/07/27 08:13:32;;;;;;;2.05;1.85;;;15.30;99.90;;;;;;4985729;28;20039;-81
2023/07/27 08:15:58;;;;;;;2.40;2.20;;;15.30;99.90;;;;;;4985494;28;20043;-81
2023/07/27 08:18:24;;;;;;;3.13;1.92;;;15.30;99.90;;;;;;4987507;28;20453;-81
2023/07/27 08:21:10;;;;;;;2.55;2.33;;;15.30;99.90;;;;;;4986227;28;20034;-80
2023/07/27 08:23:35;;;;;;;2.42;2.22;;;15.90;99.90;;;;;;4983239;28;20043;-81
2023/07/27 08:26:06;;;;;;;3.17;2.08;;;15.40;99.90;;;;;;4984042;28;20050;-80
2023/07/27 08:28:32;;;;;;;2.28;2.13;;;15.40;99.90;;;;;;4967355;28;20050;-81
2023/07/27 08:31:00;;;;;;;2.47;2.25;;;15.40;99.90;;;;;;4967848;28;20046;-78
2023/07/27 08:33:26;;;;;;;2.38;2.20;;;15.40;99.90;;;;;;4986447;28;20502;-79
2023/07/27 08:35:51;;;;;;;2.67;2.47;;;16.30;99.90;;;;;;4986095;28;20050;-79
2023/07/27 08:38:17;;;;;;;2.92;2.50;;;15.40;99.90;;;;;;4983538;28;20043;-78
2023/07/27 08:40:56;;;;;;;2.33;2.15;;;15.40;99.90;;;;;;4982959;28;20038;-78
2023/07/27 08:43:22;;;;;;;18.20;16.38;;;15.40;99.90;;;;;;4976163;28;20114;-79
2023/07/27 08:45:48;;;;;;;2.88;2.67;;;15.40;99.90;;;;;;4983845;28;20149;-78
2023/07/27 08:48:14;;;;;;;3.22;2.92;;;15.40;99.90;;;;;;4985357;28;20038;-79
2023/07/27 08:50:42;;;;;;;2.70;2.50;;;15.50;99.90;;;;;;4986228;28;20466;-79
2023/07/27 08:53:08;;;;;;;2.70;2.50;;;15.40;99.90;;;;;;4990478;28;20034;-79
2023/07/27 08:55:33;;;;;;;2.67;2.50;;;15.60;99.90;;;;;;4972151;28;20053;-78
2023/07/27 08:57:59;;;;;;;2.80;2.53;;;15.50;99.90;;;;;;4984362;28;20113;-79
2023/07/27 09:00:25;;;;;;;3.55;2.10;;;15.50;99.90;;;;;;4982473;28;20510;-79
2023/07/27 09:02:50;;;;;;;2.58;2.38;;;15.60;99.90;;;;;;4981185;28;20078;-79
2023/07/27 09:05:16;;;;;;;2.30;2.13;;;15.50;99.90;;;;;;4993710;28;20061;-79
2023/07/27 09:07:42;;;;;;;2.17;2.05;;;15.60;99.90;;;;;;4969491;28;20113;-79
2023/07/27 09:10:11;;;;;;;1.70;1.60;;;16.10;99.90;;;;;;4984205;28;20172;-78
2023/07/27 09:12:37;;;;;;;3.95;2.40;;;15.60;99.90;;;;;;4983013;28;20092;-80
2023/07/27 09:15:12;;;;;;;2.35;1.90;;;15.60;99.90;;;;;;4984226;28;20133;-80
2023/07/27 09:17:38;;;;;;;1.85;1.75;;;15.70;99.90;;;;;;4968048;28;20047;-79
2023/07/27 09:20:07;;;;;;;1.65;1.55;;;15.70;99.90;;;;;;4984589;28;20038;-80
2023/07/27 09:22:33;;;;;;;1.85;1.20;;;15.70;99.90;;;;;;4981138;28;20062;-80
2023/07/27 09:24:59;;;;;;;1.00;0.85;;;15.90;99.90;;;;;;4982494;28;20122;-80
2023/07/27 09:27:25;;;;;;;1.13;1.02;;;15.80;99.90;;;;;;4968119;28;20073;-80
2023/07/27 09:29:57;;;;;;;1.00;1.00;;;15.80;99.90;;;;;;4984764;28;20085;-79
2023/07/27 09:32:23;;;;;;;1.15;0.60;;;15.90;99.90;;;;;;4973999;28;20047;-80
2023/07/27 09:34:55;;;;;;;1.02;0.80;;;15.90;99.90;;;;;;4982002;28;20077;-79
2023/07/27 09:37:22;;;;;;;0.73;0.70;;;15.90;99.90;;;;;;4981247;28;20058;-79
2023/07/27 09:39:48;;;;;;;0.60;0.60;;;15.90;99.90;;;;;;4982119;28;20097;-79
2023/07/27 09:42:15;;;;;;;0.65;0.65;;;15.90;99.90;;;;;;4983546;28;20050;-79
2023/07/27 09:44:52;;;;;;;0.55;0.55;;;15.90;99.90;;;;;;4984502;28;20493;-80
2023/07/27 09:47:23;;;;;;;0.88;0.88;;;15.90;99.90;;;;;;4982620;28;20046;-79
2023/07/27 09:49:52;;;;;;;0.63;0.63;;;15.70;99.90;;;;;;4981730;28;20039;-80
2023/07/27 09:52:19;;;;;;;1.02;0.70;;;15.80;99.90;;;;;;4983167;28;20491;-79
2023/07/27 09:54:48;;;;;;;0.70;0.70;;;15.80;99.90;;;;;;4985117;28;20089;-80
2023/07/27 09:57:14;;;;;;;0.70;0.70;;;15.90;99.90;;;;;;4983274;28;20084;-79
2023/07/27 09:59:41;;;;;;;1.35;0.73;;;15.80;99.90;;;;;;4963643;28;20031;-80
2023/07/27 10:02:07;;;;;;;2.28;0.70;;;15.90;99.90;;;;;;4981886;28;20087;-79
2023/07/27 10:04:33;;;;;;;0.75;0.75;;;15.90;99.90;;;;;;4983827;28;20089;-79
2023/07/27 10:06:58;;;;;;;0.55;0.55;;;15.90;99.90;;;;;;4967967;28;20095;-80
2023/07/27 10:09:24;;;;;;;0.90;0.90;;;15.90;99.90;;;;;;4964474;28;20051;-80
2023/07/27 10:11:57;;;;;;;0.90;0.70;;;15.90;99.90;;;;;;4963717;28;20042;-80
2023/07/27 10:14:26;;;;;;;0.75;0.75;;;15.90;99.90;;;;;;4984716;28;20042;-80
2023/07/27 10:17:04;;;;;;;0.70;0.60;;;15.90;99.90;;;;;;4984031;28;20133;-80
2023/07/27 10:19:42;;;;;;;1.52;0.98;;;15.90;99.90;;;;;;4955608;28;20035;-79
2023/07/27 10:22:15;;;;;;;0.90;0.90;;;15.90;99.90;;;;;;4981706;28;20125;-79
2023/07/27 10:24:51;;;;;;;0.93;0.93;;;15.90;99.90;;;;;;4984682;28;20043;-80
2023/07/27 10:27:18;;;;;;;0.98;0.98;;;16.00;99.90;;;;;;4982232;28;20446;-80
2023/07/27 10:30:09;;;;;;;1.35;1.25;;;16.00;99.90;;;;;;4981002;28;20110;-79
2023/07/27 10:32:58;;;;;;;1.05;0.95;;;16.10;99.90;;;;;;4973613;28;20129;-79
2023/07/27 10:35:23;;;;;;;1.33;1.23;;;16.10;99.90;;;;;;4966085;28;20602;-79
2023/07/27 10:38:00;;;;;;;1.33;1.23;;;16.90;99.90;;;;;;4969463;28;20117;-79
2023/07/27 10:40:29;;;;;;;1.30;1.30;;;16.10;99.90;;;;;;4977015;28;20039;-80
2023/07/27 10:42:56;;;;;;;0.85;0.82;;;16.10;99.90;;;;;;4989157;28;20062;-79
2023/07/27 10:45:26;;;;;;;0.93;0.93;;;16.50;99.90;;;;;;4984206;28;20043;-79
2023/07/27 10:47:56;;;;;;;1.30;0.93;;;16.20;99.90;;;;;;4983021;28;20057;-79
2023/07/27 10:50:22;;;;;;;3.03;1.77;;;16.20;99.90;;;;;;4967911;28;20109;-79
2023/07/27 10:52:53;;;;;;;1.80;1.70;;;16.20;99.90;;;;;;4968470;28;20042;-79
2023/07/27 10:55:22;;;;;;;1.50;1.40;;;16.30;99.90;;;;;;4984597;28;20039;-80
2023/07/27 10:57:48;;;;;;;2.22;2.13;;;16.30;99.90;;;;;;4967293;28;20487;-80
2023/07/27 11:00:14;;;;;;;2.65;2.00;;;16.50;99.90;;;;;;4983666;28;20561;-79
2023/07/27 11:02:42;;;;;;;2.97;2.30;;;16.30;99.90;;;;;;4980112;28;20495;-79
2023/07/27 11:05:09;;;;;;;3.50;3.05;;;16.30;99.90;;;;;;4981189;28;20127;-80
2023/07/27 11:07:36;;;;;;;2.65;2.55;;;16.30;99.90;;;;;;4951725;28;20606;-80
2023/07/27 11:10:08;;;;;;;4.35;3.17;;;16.30;99.90;;;;;;4986965;28;20380;-78
2023/07/27 11:12:57;;;;;;;4.63;4.10;;;16.10;99.90;;;;;;4982570;28;20069;-80
2023/07/27 11:15:26;;;;;;;10.20;8.88;;;16.30;99.90;;;;;;4982921;28;20043;-79
2023/07/27 11:17:55;;;;;;;3.33;3.13;;;16.30;99.90;;;;;;4984077;28;20092;-79
2023/07/27 11:20:23;;;;;;;3.55;3.35;;;16.40;99.90;;;;;;4983303;28;20050;-78
2023/07/27 11:22:50;;;;;;;3.25;3.05;;;16.40;99.90;;;;;;4947021;28;20050;-78
2023/07/27 11:25:16;;;;;;;2.95;2.75;;;16.90;99.90;;;;;;4948120;28;20130;-78
2023/07/27 11:27:42;;;;;;;3.72;3.20;;;16.40;99.90;;;;;;4986232;28;20486;-79
2023/07/27 11:30:16;;;;;;;3.72;3.53;;;16.40;99.90;;;;;;4969673;28;20049;-79
2023/07/27 11:32:42;;;;;;;2.80;2.65;;;16.50;99.90;;;;;;4959727;28;20039;-78
2023/07/27 11:35:08;;;;;;;3.42;3.13;;;16.50;99.90;;;;;;4984633;28;20061;-78
2023/07/27 11:37:37;;;;;;;2.85;2.67;;;16.50;99.90;;;;;;4985995;28;20043;-78
2023/07/27 11:40:03;;;;;;;2.83;2.63;;;16.60;99.90;;;;;;4984430;28;20133;-78
2023/07/27 11:42:30;;;;;;;2.58;2.47;;;16.60;99.90;;;;;;4969606;28;20448;-78
2023/07/27 11:44:59;;;;;;;2.60;2.50;;;16.60;99.90;;;;;;4986781;28;20056;-77
2023/07/27 11:47:25;;;;;;;2.75;2.55;;;16.70;99.90;;;;;;4986788;28;20049;-78
2023/07/27 11:49:53;;;;;;;2.90;2.67;;;17.60;99.90;;;;;;4985666;28;20075;-78
2023/07/27 11:52:19;;;;;;;1.95;1.85;;;16.70;99.90;;;;;;4987654;28;20035;-80
2023/07/27 11:54:50;;;;;;;2.47;1.92;;;16.80;99.90;;;;;;4983376;28;20073;-79
2023/07/27 11:57:15;;;;;;;2.60;2.17;;;16.80;99.90;;;;;;4993415;28;20302;-78
2023/07/27 11:59:57;;;;;;;2.75;1.90;;;17.90;99.90;;;;;;4978338;28;20072;-78
2023/07/27 12:02:23;;;;;;;2.10;2.00;;;16.90;99.90;;;;;;4988659;28;20066;-78
2023/07/27 12:04:49;;;;;;;2.08;1.98;;;16.90;99.90;;;;;;4985799;28;20555;-80
2023/07/27 12:07:15;;;;;;;1.88;1.40;;;17.00;99.90;;;;;;4988265;28;20039;-79
2023/07/27 12:09:41;;;;;;;1.70;1.42;;;17.00;99.90;;;;;;4987991;28;20038;-79
2023/07/27 12:12:09;;;;;;;2.67;1.98;;;17.00;99.90;;;;;;4971773;28;20482;-80
2023/07/27 12:14:35;;;;;;;1.60;1.50;;;17.10;99.90;;;;;;4985958;28;20053;-80
2023/07/27 12:17:09;;;;;;;2.97;1.25;;;17.10;99.90;;;;;;4985549;28;20525;-80
2023/07/27 12:19:35;;;;;;;1.13;1.13;;;17.20;99.90;;;;;;4955318;28;20121;-78
2023/07/27 12:22:01;;;;;;;1.30;1.30;;;17.20;99.90;;;;;;4989740;28;20038;-78
2023/07/27 12:24:26;;;;;;;1.40;1.40;;;17.30;99.90;;;;;;4994093;28;20041;-77
2023/07/27 12:26:52;;;;;;;1.73;1.63;;;17.30;99.90;;;;;;4973503;28;20057;-78
2023/07/27 12:29:18;;;;;;;2.08;1.98;;;17.30;99.90;;;;;;4986009;28;20035;-78
2023/07/27 12:31:44;;;;;;;2.30;1.27;;;17.40;99.90;;;;;;4988067;28;20578;-78
2023/07/27 12:34:09;;;;;;;0.60;0.60;;;17.40;99.90;;;;;;4987360;28;20522;-78
2023/07/27 12:36:35;;;;;;;0.65;0.65;;;17.40;99.90;;;;;;4986450;28;20066;-79
2023/07/27 12:39:00;;;;;;;0.90;0.90;;;17.40;99.90;;;;;;4983974;28;20078;-79
2023/07/27 12:41:26;;;;;;;1.13;1.02;;;17.50;99.90;;;;;;4974801;28;20054;-77
2023/07/27 12:43:52;;;;;;;0.82;0.82;;;17.50;99.90;;;;;;4984822;28;20045;-78
2023/07/27 12:46:17;;;;;;;2.53;0.88;;;17.50;99.90;;;;;;4983267;28;20121;-78